Airport details for: GCRR (Spain)

Metar

GCRR 231630Z 35011G23KT 300V030 9999 FEW040 24/13 Q1015

General details

ICAO: GCRR
IATA: ACE
Name (city): Lanzarote
Major:
Country: Spain
vACC: vACC Spain
Description:

Lanzarote Airport GCRR

Lanzarote Airport (IATA: ACE, ICAO: GCRR) (Spanish: Aeropuerto de Lanzarote), also known as Arrecife Airport, is the airport serving the island of Lanzarote in the Canary Islands. The airport is located in San Bartolomé, Las Palmas, 5 kilometres (3.1 mi) southwest of the town of Arrecife.[1] It handles flights to many European airports, with hundreds of thousands of tourists each year, as well as internal flights to other Spanish airports. It handled 5,168,775 passengers in 2012

Scenery links:
FS9 scenery:
FSX/P3D scenery:
XP scenery:
Elevation: 47 ft.
Transition altitude: 6000 ft.
MSA: 7800 ft.
Latitude: 28.945556
Longitude: -13.605278
GCRR Charts
GCRR Notams
GCRR Online stations

Runways

Number Course Length Elevation Lat Lon ILS ILS freq ILS FAC GP
03 32° 7874ft / 2400 m 18ft 28.935822 -13.610817 109.1 32° 3.0°
21 212° 7874ft / 2400 m 47ft 28.955111 -13.599631 - - 3.0°